Terminal Aerodrome Forecast
Issued by NWS Wilmington, NC

Home | Current Version | Previous Version | Text Only | Print | Product List | Glossary On
Versions: 1 2 3 4 5 6 7 8 9 10 11 12 13 14 15 16 17 18 19 20
837
FTUS42 KILM 232327
TAFMYR
TAF
KMYR 232327Z 2400/2424 10006KT P6SM SCT200
     FM240500 05006KT P6SM SCT200
     FM240900 03006KT 3SM BR SCT007
     FM241300 05012KT P6SM SCT040=

USA.gov is the U.S. government's official web portal to all federal, state and local government web resources and services.